Dimitrovgrad, Serbia
Current Conditions -  °F | °C
As of 8:00 PM on Sunday 21 Dec 2014 (Local Time) from LBSF Reporting Station
Clear Clear  
Wind Chill: 25°   Ceiling: Unl
Heat Index: 36°   Visibility: 6mi
Dew Point: 27°   Wind: 17mph
Humidity: 70%   Direction: 280°W
Pressure: 30.33"   Gusts: NA
Location:  43.01°N, 22.78°E
Report Text: LBSF 211800Z 28015KT CAVOK 02/M03 Q1027 WS ALL RWY NOSIG
Loading
Personal Weather Stations






























Interactive Weather Map New forecast layout! Learn more

10-Day Weather Forecast

Advertisements
Track Severe Weather on mobile